Schedule Details

Flight Number: CPX423
Departure: Philip S.W. Goldson International Airport (MZBZ) at N/A
Arrival: Miami International Airport (KMIA) at N/A
Route: FRANT UG765 MAXIM EADEN CURSO5


Current Weather Information
MZBZ 152200Z 12005KT 9999 SCT028 28/22 A2985 Q1011 NOSIG
KMIA 152153Z 12006KT 10SM SCT035 SCT055 OVC250 25/19 A2993 RMK AO2 SLP136 T02500194

Route Map